Flight Track Log - Related Links

Times and Time Zones

All times are in EDT time to prevent confusion due to time zone crossing. See the N384LV flight status page for this flight to view local times or setup timezone preferences in your user account.

Time Position Orientation Groundspeed Altitude Reporting Facility
EDT Latitude Longitude Course Direction KTS MPH feet Rate Location/Type
Fri 01:20:02 PM 39.7000 -76.1333 49° Northeast 146 168 4,500  Level Potomac TRACON
Fri 01:22:05 PM 39.7500 -76.0500 52° Northeast 145 167 4,600 33 Climbing Philadelphia TRACON
Fri 01:23:05 PM 39.7667 -76.0000 67° East 144 166 4,600  Level Philadelphia TRACON
Fri 01:24:11 PM 39.8000 -75.9500 49° Northeast 142 163 4,600  Level Philadelphia TRACON
Fri 01:25:00 PM 39.4983 -76.1587 49° Northeast  Level Estimated
Fri 01:25:17 PM 39.8333 -75.9000 49° Northeast 149 171 4,600  Level Philadelphia TRACON
Fri 01:26:17 PM 39.8500 -75.8667 57° Northeast 144 166 4,700 50 Climbing Philadelphia TRACON
Fri 01:27:17 PM 39.8667 -75.8167 67° East 143 165 4,700 -50 Level Philadelphia TRACON
Fri 01:28:17 PM 39.9000 -75.7833 37° Northeast 137 158 4,600 -50 Descending Philadelphia TRACON
Fri 01:29:17 PM 39.9167 -75.7333 66° East 138 159 4,600  Level Philadelphia TRACON
Fri 01:30:17 PM 39.9333 -75.7000 57° Northeast 142 163 4,600 56 Level Philadelphia TRACON
Fri 01:31:05 PM 39.9667 -75.6667 37° Northeast 133 153 4,700 56 Climbing Philadelphia TRACON
Fri 01:32:05 PM 39.9833 -75.6333 57° Northeast 145 167 4,700 -48 Level Philadelphia TRACON
Fri 01:33:11 PM 40.0000 -75.5667 72° East 154 177 4,600 -105 Descending Philadelphia TRACON
Fri 01:33:59 PM 40.0167 -75.5500 37° Northeast 129 148 4,500 -53 Descending Philadelphia TRACON
Fri 01:35:05 PM 40.0500 -75.5000 49° Northeast 139 160 4,500  Level Philadelphia TRACON
Fri 01:36:05 PM 40.0667 -75.4500 66° East 144 166 4,500  Level Philadelphia TRACON
Fri 01:37:11 PM 40.1000 -75.4167 37° Northeast 139 160 4,500 48 Level Philadelphia TRACON
Fri 01:38:11 PM 40.1167 -75.3667 66° East 130 150 4,600  Climbing Philadelphia TRACON
Fri 01:39:11 PM 40.1333 -75.3333 57° Northeast 144 166 4,500 -50 Descending Philadelphia TRACON
Fri 01:40:11 PM 40.1667 -75.2833 49° Northeast 125 144 4,500  Level Philadelphia TRACON
Fri 01:41:17 PM 40.1833 -75.2500 57° Northeast 140 161 4,500  Level Philadelphia TRACON
Fri 01:42:17 PM 40.2000 -75.2000 66° East 126 145 4,500  Level Philadelphia TRACON
Fri 01:43:17 PM 40.2167 -75.1667 57° Northeast 135 155 4,500  Level Philadelphia TRACON
Fri 01:44:11 PM 40.2500 -75.1333 37° Northeast 134 154 4,500  Level Philadelphia TRACON
Fri 01:45:11 PM 40.2667 -75.0833 66° East 140 161 4,500  Level Philadelphia TRACON
Fri 01:46:11 PM 40.2833 -75.0500 57° Northeast 136 157 4,500  Level Philadelphia TRACON
Fri 01:47:12 PM 40.3167 -75.0167 37° Northeast 137 158 4,500  Level Philadelphia TRACON
Fri 01:48:12 PM 40.3333 -74.9667 66° East 133 153 4,500 -150 Level Philadelphia TRACON
Fri 01:49:12 PM 40.3500 -74.9333 57° Northeast 136 157 4,200 -344 Descending Philadelphia TRACON
Fri 01:50:14 PM 40.3667 -74.8833 66° East 138 159 3,800 -350 Descending New York TRACON
Fri 01:51:12 PM 40.4000 -74.8500 37° Northeast 138 159 3,500 -444 Descending New York TRACON
Fri 01:52:02 PM 40.4167 -74.8167 57° Northeast 136 157 3,000 -491 Descending New York TRACON
Fri 01:53:02 PM 40.4333 -74.7667 66° East 133 153 2,600 -476 Descending New York TRACON
Fri 01:54:08 PM 40.4500 -74.7333 57° Northeast 131 151 2,000 -545 Descending New York TRACON
Fri 01:56:00 PM 40.4904 -74.6272 52° Northeast  Level FlightAware Approximate
Fri 02:03:00 PM 40.5167 -74.5833 52° Northeast  Level FlightAware Approximate
Fri 02:04:00 PM 40.5244 -74.5983 52° Northeast  Level Estimated
Fri 02:05:00 PM 40.5244 -74.5983 52° Northeast  Level Estimated

Login

Don't have an account? Register now (free) for customized features, flight alerts, and more!